메인 페이지
METAR-TAF:

METAR-TAF

공항 :

잠셰드푸르, 인도

위도: 22-48-49N, 경도: 086-10-05E, 고도: 146m

현재 날씨관측

예보는 10 시간 11분 전, 12:00시(UTC)에 발표되었습니다.
동남동10kt
온도 26°C
습도 79%
기압 1003 hPa
시정: 5000m
고도 1500ft 상공 구름 보통
고도 2500ft 상공 구름 보통
고도 3000ft 상공 구름 조금, 적란운.
고도 10000ft 상공 구름 많음
연무

METAR: VEJS 281200Z 11010KT 5000 HZ SCT015 SCT025 FEW030CB BKN100 26/22 Q1003

시각: 03:41 (22:11 UTC)

예보

예보는 11 시간 11분 전, 11:00시(UTC)에 발표되었습니다.
예보 대상 시간: 28일 12시부터 28일 21시까지 (UTC)
남동10kt
시정: 4500m
고도 2000ft 상공 구름 보통
고도 3000ft 상공 구름 조금, 적란운.
고도 10000ft 상공 구름 보통
약한비, 연무
전환 중
28일 15시부터 28일 17시까지 (UTC)
시정: 3000m
고도 2000ft 상공 구름 조금
고도 10000ft 상공 구름 보통
연무

TAF: VEJS 281100Z 2812/2821 14010KT 4500 -RA HZ SCT020 FEW030CB SCT100 BECMG 2815/2817 3000 HZ FEW020 SCT100

4,000개 이상의 공항 관측 자료 및 예보 (METAR 및 TAF 보고).

지도상에서 검색 가능한 기상관측소가 노란 점과 빨간 점으로 표시되어 있습니다.

기상관측소 명을 보려면 표시 위로 마우스를 이동하세요.

날씨 관측과 예보를 보려면 클릭하세요.

지도 변경 : 확대하려면 엑스 표시가 있는 녹색 버튼, 축소하려면 빼기 표시가 있는 녹색 버튼, 다음 페이지의 지도를 보려면 녹색 화살표를 클릭하세요.


METAR-TAF: